Flight Track Log - Related Links

Times and Time Zones

All times are in EDT time to prevent confusion due to time zone crossing. See the THY1041 flight status page for this flight to view local times or setup timezone preferences in your user account.

Time Position Orientation Groundspeed Altitude Reporting Facility
EDT Latitude Longitude Course Direction KTS MPH feet Rate Location/Type
Sun 04:23:00 PM 41.5943 28.3793 332° Northwest  Level Estimated
Sun 04:24:00 PM 41.6824 28.3155 332° Northwest  Level Estimated
Sun 04:25:00 PM 41.7704 28.2515 332° Northwest  Level Estimated
Sun 04:26:00 PM 41.8584 28.1874 332° Northwest  Level Estimated
Sun 04:27:00 PM 41.9464 28.1231 331° Northwest  Level Estimated
Sun 04:28:00 PM 42.0343 28.0585 331° Northwest  Level Estimated
Sun 04:29:00 PM 42.1222 27.9939 331° Northwest  Level Estimated
Sun 04:30:00 PM 42.2100 27.9290 331° Northwest  Level Estimated
Sun 04:31:00 PM 42.2979 27.8640 331° Northwest  Level Estimated
Sun 04:32:00 PM 42.3856 27.7987 331° Northwest  Level Estimated
Sun 04:33:00 PM 42.4734 27.7333 331° Northwest  Level Estimated
Sun 04:34:00 PM 42.5611 27.6677 331° Northwest  Level Estimated
Sun 04:35:00 PM 42.6487 27.6019 331° Northwest  Level Estimated
Sun 04:36:00 PM 42.7364 27.5360 331° Northwest  Level Estimated
Sun 04:37:00 PM 42.8240 27.4698 331° Northwest  Level Estimated
Sun 04:38:00 PM 42.9115 27.4035 331° Northwest  Level Estimated
Sun 04:39:00 PM 42.9990 27.3370 331° Northwest  Level Estimated
Sun 04:40:00 PM 43.0865 27.2703 331° Northwest  Level Estimated
Sun 04:41:00 PM 43.1739 27.2034 331° Northwest  Level Estimated
Sun 04:42:00 PM 43.2613 27.1362 331° Northwest  Level Estimated
Sun 04:43:00 PM 43.3487 27.0690 331° Northwest  Level Estimated
Sun 04:44:00 PM 43.4360 27.0015 331° Northwest  Level Estimated
Sun 04:45:00 PM 43.5233 26.9338 331° Northwest  Level Estimated
Sun 04:46:00 PM 43.6105 26.8659 331° Northwest  Level Estimated
Sun 04:47:00 PM 43.6977 26.7978 331° Northwest  Level Estimated
Sun 04:48:00 PM 43.7849 26.7296 331° Northwest  Level Estimated
Sun 04:49:00 PM 43.8720 26.6611 330° Northwest  Level Estimated
Sun 04:50:00 PM 43.9591 26.5924 330° Northwest  Level Estimated
Sun 04:51:00 PM 44.0461 26.5236 330° Northwest  Level Estimated
Sun 04:52:00 PM 44.1331 26.4545 330° Northwest  Level Estimated
Sun 04:53:00 PM 44.2200 26.3852 330° Northwest  Level Estimated
Sun 04:54:00 PM 44.3069 26.3157 330° Northwest  Level Estimated
Sun 04:55:00 PM 44.3938 26.2460 330° Northwest  Level Estimated
Sun 04:56:00 PM 44.4806 26.1761 330° Northwest  Level Estimated
Sun 04:57:00 PM 44.5674 26.1060 330° Northwest  Level Estimated
Sun 04:58:00 PM 44.5722 26.1022 330° Northwest  Level Estimated
Sun 04:59:00 PM 44.5722 26.1022 North  Level Estimated
Sun 05:00:00 PM 44.5722 26.1022 North  Level Estimated
Sun 05:01:00 PM 44.5722 26.1022 North  Level Estimated
Sun 05:02:00 PM 44.5722 26.1022 North  Level Estimated
Sun 05:03:00 PM 44.5722 26.1022 North  Level Estimated
Sun 05:04:00 PM 44.5722 26.1022 North  Level Estimated
Sun 05:05:00 PM 44.5722 26.1022 North  Level Estimated
Sun 05:06:00 PM 44.5722 26.1022 North  Level Estimated
Sun 05:07:00 PM 44.5722 26.1022 North  Level Estimated
Sun 05:08:00 PM 44.5722 26.1022 North  Level Estimated
Sun 05:09:00 PM 44.5722 26.1022 North  Level Estimated
Sun 05:10:00 PM 44.5722 26.1022 North  Level Estimated
Sun 05:11:00 PM 44.5722 26.1022 North  Level Estimated
Sun 05:12:00 PM 44.5722 26.1022 North  Level Estimated
Sun 05:13:00 PM 44.5722 26.1022 North  Level Estimated

Login

Don't have an account? Register now (free) for customized features, flight alerts, and more!